Alpine Persefone — A8MS7 — position and weather

sailwx.info

Track history (hours):
 
Tides and Currents Weather Stations Pressure Air Temp Water Temp Dewpoint Dewpoint Depression Visibility Wind Speed Wind Dir Waves Ship Positions

Alpine Persefone

Last reported at 2015-Jul-27 15:16 UTC. Time now 2015-Jul-30 02:08 UTC.
Position N 33°47' W 007°23'.

Length 226 m; draft 8 m.

Type: Tanker. MMSI: 636013411.

Date/timePositionNaut miles runAvg speedWind from/ knotsBaromVisibWave heightAir tempDewpointWater temp
2015-Jul-27 15:16N 33°47' W 007°23'0 0.0
2015-Jul-27 13:31N 33°47' W 007°23'0 0.0
2015-Jul-27 12:04N 33°47' W 007°23'0 0.0
2015-Jul-26 23:25N 33°47' W 007°23'  
2015-Jul-24 07:26N 33°51' W 007°26'4 3.6
2015-Jul-24 06:13N 33°55' W 007°28'5 8.1
2015-Jul-24 05:33N 33°60' W 007°30'10713.4
2015-Jul-23 21:33N 35°36' W 008°27'1313.1
2015-Jul-23 20:33N 35°48' W 008°34'1313.2
2015-Jul-23 19:33N 35°60' W 008°41'1313.2
2015-Jul-23 18:33N 36°12' W 008°48'1313.4
2015-Jul-23 17:33N 36°24' W 008°55'1313.1
2015-Jul-23 16:33N 36°31' W 009°09'1313.1
2015-Jul-23 15:33N 36°38' W 009°23'1313.0
2015-Jul-23 14:33N 36°48' W 009°33'1413.5
2015-Jul-23 13:32N 37°01' W 009°37'1313.3
2015-Jul-23 12:33N 37°14' W 009°40'1413.7
2015-Jul-23 11:33N 37°28' W 009°44'1313.5
2015-Jul-23 10:33N 37°41' W 009°49'1413.7
2015-Jul-23 09:33N 37°54' W 009°54'1413.5
2015-Jul-23 08:33N 38°07' W 009°57'1313.4
2015-Jul-23 07:33N 38°20' W 010°01'1313.4
2015-Jul-23 06:33N 38°33' W 010°04'1313.3
2015-Jul-23 05:33N 38°47' W 010°06'1313.1
2015-Jul-23 04:33N 38°60' W 010°06'1312.9
2015-Jul-23 03:33N 39°13' W 010°05'1313.3
2015-Jul-23 02:33N 39°26' W 010°06'1413.3
2015-Jul-23 01:31N 39°40' W 010°06'1813.2
2015-Jul-23 00:11N 39°57' W 010°06'1013.5
2015-Jul-22 23:25N 40°08' W 010°06'1313.7
2015-Jul-22 22:27N 40°21' W 010°06'1213.5
2015-Jul-22 21:33N 40°33' W 010°06'53612.4
2015-Jul-21 02:18N 48°56' W 005°43'11912.1
2015-Jul-20 16:27N 49°56' W 003°05'12012.0
2015-Jul-20 06:27N 50°29' W 000°05'1414.6
2015-Jul-20 05:29N 50°33' E 000°16'1314.3
2015-Jul-20 04:34N 50°37' E 000°36'1313.3
2015-Jul-20 03:34N 50°45' E 000°53'1211.8
2015-Jul-20 02:34N 50°53' E 001°07'1110.8
2015-Jul-20 01:33N 51°00' E 001°20'1110.8
2015-Jul-20 00:34N 51°07' E 001°33'1312.6
2015-Jul-19 23:33N 51°16' E 001°48'1414.2
2015-Jul-19 22:33N 51°28' E 002°00'1414.3
2015-Jul-19 21:34N 51°38' E 002°16'1413.4
2015-Jul-19 20:33N 51°48' E 002°30'1312.7
2015-Jul-19 19:33N 51°58' E 002°44'1211.1
2015-Jul-19 18:30N 52°02' E 003°01'1411.1
2015-Jul-19 17:14N 52°05' E 003°24'8 9.8
2015-Jul-19 16:27N 52°11' E 003°31'1 0.8
2015-Jul-19 15:11N 52°10' E 003°32'1 1.0
2015-Jul-19 14:30N 52°10' E 003°33'3 3.5
2015-Jul-19 13:32N 52°08' E 003°36'1111.2
2015-Jul-19 12:33N 52°03' E 003°52'1010.4
2015-Jul-19 11:34N 51°58' E 004°07'1 1.4
2015-Jul-19 10:32N 51°57' E 004°09'0 0.0
2015-Jul-19 09:32N 51°57' E 004°09'0 0.0
2015-Jul-19 08:32N 51°57' E 004°09'0 0.0
2015-Jul-19 07:32N 51°57' E 004°09'0 0.0
2015-Jul-19 06:32N 51°57' E 004°09'0 0.0
2015-Jul-19 05:32N 51°57' E 004°09'0 0.0
2015-Jul-19 04:32N 51°57' E 004°09'0 0.0
2015-Jul-19 00:32N 51°57' E 004°09'0 0.0
2015-Jul-18 23:32N 51°57' E 004°09'0 0.0
2015-Jul-18 22:32N 51°57' E 004°09'0 0.0
2015-Jul-18 21:32N 51°57' E 004°09'0 0.0
2015-Jul-18 20:29N 51°57' E 004°09'0 0.0
2015-Jul-18 19:32N 51°57' E 004°09'0 0.0
2015-Jul-18 18:29N 51°57' E 004°09'0 0.0
2015-Jul-18 17:32N 51°57' E 004°09'0 0.0
2015-Jul-18 16:32N 51°57' E 004°09'0 0.0
2015-Jul-18 15:32N 51°57' E 004°09'0 0.0
2015-Jul-18 14:32N 51°57' E 004°09'0 0.0
2015-Jul-18 13:32N 51°57' E 004°09'0 0.0
2015-Jul-18 12:32N 51°57' E 004°09'0 0.0
2015-Jul-18 11:32N 51°57' E 004°09'0 0.0
2015-Jul-18 10:29N 51°57' E 004°09'0 0.0
2015-Jul-18 09:32N 51°57' E 004°09'0 0.0
2015-Jul-18 08:32N 51°57' E 004°09'0 0.0
2015-Jul-18 07:32N 51°57' E 004°09'0 0.0
2015-Jul-18 06:32N 51°57' E 004°09'0 0.0
2015-Jul-18 05:29N 51°57' E 004°09'0 0.0
2015-Jul-18 04:29N 51°57' E 004°09'0 0.0
2015-Jul-18 03:29N 51°57' E 004°09'0 0.0
2015-Jul-18 02:34N 51°57' E 004°09'2 2.4
2015-Jul-18 01:34N 51°59' E 004°05'9 8.5
2015-Jul-18 00:33N 52°00' E 003°52'9 9.4
2015-Jul-17 23:33N 51°57' E 003°37'7 2.1
2015-Jul-17 20:14N 51°53' E 003°28'0 0.1
2015-Jul-17 19:32N 51°53' E 003°28'0 0.0
2015-Jul-17 18:23N 51°53' E 003°28'  
Track history (hours):
 
Tides and Currents Weather Stations Pressure Air Temp Water Temp Dewpoint Dewpoint Depression Visibility Wind Speed Wind Dir Waves Ship Positions

Alpine Persefone

Last reported at 2015-Jul-27 15:16 UTC. Time now 2015-Jul-30 02:08 UTC.
Position N 33°47' W 007°23'.

Length 226 m; draft 8 m.

Type: Tanker. MMSI: 636013411.

Date/timePositionNaut miles runAvg speedWind from/ knotsBaromVisibWave heightAir tempDewpointWater temp
2015-Jul-27 15:16N 33°47' W 007°23'0 0.0
2015-Jul-27 13:31N 33°47' W 007°23'0 0.0
2015-Jul-27 12:04N 33°47' W 007°23'0 0.0
2015-Jul-26 23:25N 33°47' W 007°23'  
2015-Jul-24 07:26N 33°51' W 007°26'4 3.6
2015-Jul-24 06:13N 33°55' W 007°28'5 8.1
2015-Jul-24 05:33N 33°60' W 007°30'10713.4
2015-Jul-23 21:33N 35°36' W 008°27'1313.1
2015-Jul-23 20:33N 35°48' W 008°34'1313.2
2015-Jul-23 19:33N 35°60' W 008°41'1313.2
2015-Jul-23 18:33N 36°12' W 008°48'1313.4
2015-Jul-23 17:33N 36°24' W 008°55'1313.1
2015-Jul-23 16:33N 36°31' W 009°09'1313.1
2015-Jul-23 15:33N 36°38' W 009°23'1313.0
2015-Jul-23 14:33N 36°48' W 009°33'1413.5
2015-Jul-23 13:32N 37°01' W 009°37'1313.3
2015-Jul-23 12:33N 37°14' W 009°40'1413.7
2015-Jul-23 11:33N 37°28' W 009°44'1313.5
2015-Jul-23 10:33N 37°41' W 009°49'1413.7
2015-Jul-23 09:33N 37°54' W 009°54'1413.5
2015-Jul-23 08:33N 38°07' W 009°57'1313.4
2015-Jul-23 07:33N 38°20' W 010°01'1313.4
2015-Jul-23 06:33N 38°33' W 010°04'1313.3
2015-Jul-23 05:33N 38°47' W 010°06'1313.1
2015-Jul-23 04:33N 38°60' W 010°06'1312.9
2015-Jul-23 03:33N 39°13' W 010°05'1313.3
2015-Jul-23 02:33N 39°26' W 010°06'1413.3
2015-Jul-23 01:31N 39°40' W 010°06'1813.2
2015-Jul-23 00:11N 39°57' W 010°06'1013.5
2015-Jul-22 23:25N 40°08' W 010°06'1313.7
2015-Jul-22 22:27N 40°21' W 010°06'1213.5
2015-Jul-22 21:33N 40°33' W 010°06'53612.4
2015-Jul-21 02:18N 48°56' W 005°43'11912.1
2015-Jul-20 16:27N 49°56' W 003°05'12012.0
2015-Jul-20 06:27N 50°29' W 000°05'1414.6
2015-Jul-20 05:29N 50°33' E 000°16'1314.3
2015-Jul-20 04:34N 50°37' E 000°36'1313.3
2015-Jul-20 03:34N 50°45' E 000°53'1211.8
2015-Jul-20 02:34N 50°53' E 001°07'1110.8
2015-Jul-20 01:33N 51°00' E 001°20'1110.8
2015-Jul-20 00:34N 51°07' E 001°33'1312.6
2015-Jul-19 23:33N 51°16' E 001°48'1414.2
2015-Jul-19 22:33N 51°28' E 002°00'1414.3
2015-Jul-19 21:34N 51°38' E 002°16'1413.4
2015-Jul-19 20:33N 51°48' E 002°30'1312.7
2015-Jul-19 19:33N 51°58' E 002°44'1211.1
2015-Jul-19 18:30N 52°02' E 003°01'1411.1
2015-Jul-19 17:14N 52°05' E 003°24'8 9.8
2015-Jul-19 16:27N 52°11' E 003°31'1 0.8
2015-Jul-19 15:11N 52°10' E 003°32'1 1.0
2015-Jul-19 14:30N 52°10' E 003°33'3 3.5
2015-Jul-19 13:32N 52°08' E 003°36'1111.2
2015-Jul-19 12:33N 52°03' E 003°52'1010.4
2015-Jul-19 11:34N 51°58' E 004°07'1 1.4
2015-Jul-19 10:32N 51°57' E 004°09'0 0.0
2015-Jul-19 09:32N 51°57' E 004°09'0 0.0
2015-Jul-19 08:32N 51°57' E 004°09'0 0.0
2015-Jul-19 07:32N 51°57' E 004°09'0 0.0
2015-Jul-19 06:32N 51°57' E 004°09'0 0.0
2015-Jul-19 05:32N 51°57' E 004°09'0 0.0
2015-Jul-19 04:32N 51°57' E 004°09'0 0.0
2015-Jul-19 00:32N 51°57' E 004°09'0 0.0
2015-Jul-18 23:32N 51°57' E 004°09'0 0.0
2015-Jul-18 22:32N 51°57' E 004°09'0 0.0
2015-Jul-18 21:32N 51°57' E 004°09'0 0.0
2015-Jul-18 20:29N 51°57' E 004°09'0 0.0
2015-Jul-18 19:32N 51°57' E 004°09'0 0.0
2015-Jul-18 18:29N 51°57' E 004°09'0 0.0
2015-Jul-18 17:32N 51°57' E 004°09'0 0.0
2015-Jul-18 16:32N 51°57' E 004°09'0 0.0
2015-Jul-18 15:32N 51°57' E 004°09'0 0.0
2015-Jul-18 14:32N 51°57' E 004°09'0 0.0
2015-Jul-18 13:32N 51°57' E 004°09'0 0.0
2015-Jul-18 12:32N 51°57' E 004°09'0 0.0
2015-Jul-18 11:32N 51°57' E 004°09'0 0.0
2015-Jul-18 10:29N 51°57' E 004°09'0 0.0
2015-Jul-18 09:32N 51°57' E 004°09'0 0.0
2015-Jul-18 08:32N 51°57' E 004°09'0 0.0
2015-Jul-18 07:32N 51°57' E 004°09'0 0.0
2015-Jul-18 06:32N 51°57' E 004°09'0 0.0
2015-Jul-18 05:29N 51°57' E 004°09'0 0.0
2015-Jul-18 04:29N 51°57' E 004°09'0 0.0
2015-Jul-18 03:29N 51°57' E 004°09'0 0.0
2015-Jul-18 02:34N 51°57' E 004°09'2 2.4
2015-Jul-18 01:34N 51°59' E 004°05'9 8.5
2015-Jul-18 00:33N 52°00' E 003°52'9 9.4
2015-Jul-17 23:33N 51°57' E 003°37'7 2.1
2015-Jul-17 20:14N 51°53' E 003°28'0 0.1
2015-Jul-17 19:32N 51°53' E 003°28'0 0.0
2015-Jul-17 18:23N 51°53' E 003°28'  

Dump ship's entire track history